Time;durP1;ratioP1;P1;durP2;ratioP2;P2;SDS_P1;SDS_P2;PMS_P1;PMS_P2;Temp;Humidity;BMP_temperature;BMP_pressure;BME280_temperature;BME280_humidity;BME280_pressure;Samples;Min_cycle;Max_cycle;Signal;HPM_P1;HPM_P2
2021/01/04 00:00:30;;;;;;;21.90;13.50;;;8.10;90.70;;;;;;5094294;28;20024;-69
2021/01/04 00:03:32;;;;;;;51.25;32.97;;;8.10;90.80;;;;;;5095944;28;20117;-68
2021/01/04 00:06:40;;;;;;;39.67;24.35;;;8.20;90.90;;;;;;5094221;28;20024;-67
2021/01/04 00:09:38;;;;;;;42.60;26.85;;;8.20;90.90;;;;;;5057538;28;20051;-69
2021/01/04 00:12:09;;;;;;;42.47;26.88;;;8.10;91.50;;;;;;5054177;28;20036;-68
2021/01/04 00:14:45;;;;;;;49.35;28.58;;;8.00;91.10;;;;;;5095231;28;20076;-68
2021/01/04 00:17:19;;;;;;;48.83;28.05;;;8.00;91.40;;;;;;5096189;28;20027;-68
2021/01/04 00:20:03;;;;;;;40.42;22.38;;;8.00;91.60;;;;;;5094985;28;20028;-68
2021/01/04 00:22:41;;;;;;;44.85;27.05;;;8.00;91.50;;;;;;5094425;28;20054;-67
2021/01/04 00:25:29;;;;;;;44.22;26.02;;;8.00;91.60;;;;;;5095679;28;20028;-68
2021/01/04 00:28:14;;;;;;;106.07;50.22;;;7.90;91.70;;;;;;5095560;28;20035;-66
2021/01/04 00:30:49;;;;;;;86.65;44.88;;;8.00;91.50;;;;;;5095742;28;20066;-71
2021/01/04 00:33:24;;;;;;;56.65;29.70;;;8.00;91.40;;;;;;5093972;28;20032;-69
2021/01/04 00:35:52;;;;;;;;;;;8.00;91.10;;;;;;5095407;28;20024;-68
2021/01/04 00:38:36;;;;;;;40.75;22.52;;;8.00;91.00;;;;;;5094120;28;20338;-68
2021/01/04 00:41:30;;;;;;;42.47;24.10;;;8.00;91.00;;;;;;5094828;28;20027;-69
2021/01/04 00:43:58;;;;;;;40.33;22.20;;;8.00;90.90;;;;;;5050987;28;20549;-69
2021/01/04 00:46:42;;;;;;;41.33;22.38;;;8.00;90.80;;;;;;5094987;28;20028;-68
2021/01/04 00:49:46;;;;;;;40.70;22.37;;;8.00;90.90;;;;;;5094540;28;20040;-68
2021/01/04 00:52:31;;;;;;;41.38;20.17;;;8.00;90.80;;;;;;5053172;28;20322;-68
2021/01/04 00:55:09;;;;;;;35.97;18.88;;;8.00;90.80;;;;;;5094849;28;20031;-68
2021/01/04 00:57:47;;;;;;;35.28;19.83;;;8.00;90.70;;;;;;5094126;28;20081;-68
2021/01/04 01:00:21;;;;;;;42.60;21.48;;;8.10;91.20;;;;;;5094383;28;20488;-68
2021/01/04 01:02:59;;;;;;;36.42;19.63;;;8.00;91.20;;;;;;5094308;28;20024;-68
2021/01/04 01:05:48;;;;;;;44.90;23.60;;;8.00;91.20;;;;;;5094452;28;20024;-69
2021/01/04 01:08:22;;;;;;;43.92;25.63;;;8.00;91.30;;;;;;5094578;28;20036;-69
2021/01/04 01:10:56;;;;;;;64.43;33.83;;;7.90;91.20;;;;;;5094384;28;20028;-68
2021/01/04 01:13:34;;;;;;;63.75;30.52;;;7.90;91.20;;;;;;5094554;28;20044;-68
2021/01/04 01:16:07;;;;;;;58.75;28.05;;;8.00;91.30;;;;;;5092900;28;20029;-68
2021/01/04 01:18:47;;;;;;;41.40;19.13;;;7.90;91.10;;;;;;5093199;28;20039;-68
2021/01/04 01:21:13;;;;;;;43.20;21.35;;;7.90;91.00;;;;;;5093036;28;20031;-69
2021/01/04 01:23:41;;;;;;;37.67;19.35;;;7.90;91.00;;;;;;5092467;28;20115;-69
2021/01/04 01:26:16;;;;;;;34.13;14.43;;;8.00;91.00;;;;;;5093996;28;20024;-69
2021/01/04 01:29:09;;;;;;;27.35;13.48;;;8.00;91.00;;;;;;5094236;28;20097;-69
2021/01/04 01:31:59;;;;;;;35.85;15.65;;;7.90;91.10;;;;;;5092897;28;20392;-68
2021/01/04 01:34:27;;;;;;;22.80;11.65;;;7.90;91.20;;;;;;5094276;28;20052;-67
2021/01/04 01:37:15;;;;;;;25.50;11.27;;;7.90;91.40;;;;;;5093588;28;20489;-68
2021/01/04 01:40:12;;;;;;;21.70;11.18;;;7.90;91.40;;;;;;5094683;28;20046;-67
2021/01/04 01:43:34;;;;;;;23.55;11.63;;;7.90;91.50;;;;;;5061095;28;20457;-69
2021/01/04 01:46:59;;;;;;;21.95;10.68;;;7.90;91.50;;;;;;4995290;28;20050;-68
2021/01/04 01:49:51;;;;;;;16.65;8.40;;;7.90;91.60;;;;;;4995234;28;20045;-67
2021/01/04 01:52:47;;;;;;;14.40;7.80;;;7.90;91.70;;;;;;5093857;28;20036;-67
2021/01/04 01:55:22;;;;;;;14.40;7.75;;;7.90;91.80;;;;;;5094090;28;20028;-68
2021/01/04 01:58:19;;;;;;;17.20;8.98;;;7.90;91.90;;;;;;5094140;28;20028;-68
2021/01/04 02:01:07;;;;;;;15.48;8.70;;;7.90;92.00;;;;;;5092620;28;20181;-71
2021/01/04 02:04:01;;;;;;;13.63;8.48;;;7.90;92.00;;;;;;5094231;28;20024;-69
2021/01/04 02:06:51;;;;;;;15.77;8.70;;;7.90;92.00;;;;;;5063909;28;20036;-69
2021/01/04 02:09:25;;;;;;;15.30;8.10;;;7.90;91.90;;;;;;5093782;28;20028;-69
2021/01/04 02:11:57;;;;;;;;;;;7.90;92.00;;;;;;5092646;28;20369;-67
2021/01/04 02:14:44;;;;;;;15.82;8.82;;;7.90;92.00;;;;;;5092189;28;20387;-66
2021/01/04 02:17:32;;;;;;;14.32;8.50;;;7.90;92.10;;;;;;5097111;28;20089;-68
2021/01/04 02:20:43;;;;;;;14.63;8.45;;;7.90;92.00;;;;;;5097551;28;20036;-66
2021/01/04 02:23:23;;;;;;;15.20;7.90;;;7.90;92.10;;;;;;5097218;28;20032;-67
2021/01/04 02:25:52;;;;;;;11.70;6.40;;;8.00;92.00;;;;;;5096491;28;20019;-67
2021/01/04 02:28:25;;;;;;;10.80;6.85;;;8.00;92.00;;;;;;5097622;28;20031;-67
2021/01/04 02:30:51;;;;;;;12.40;6.45;;;8.00;92.10;;;;;;5097581;28;20486;-67
2021/01/04 02:33:18;;;;;;;12.48;6.25;;;8.00;92.10;;;;;;5095971;28;20024;-68
2021/01/04 02:35:47;;;;;;;13.63;6.45;;;8.00;92.00;;;;;;5096310;28;20042;-67
2021/01/04 02:38:25;;;;;;;12.73;6.00;;;8.00;92.10;;;;;;5096514;28;20373;-67
2021/01/04 02:40:51;;;;;;;13.75;6.90;;;8.10;92.10;;;;;;5097529;28;20379;-69
2021/01/04 02:43:20;;;;;;;16.35;7.03;;;8.10;92.10;;;;;;5097421;28;20028;-68
2021/01/04 02:45:46;;;;;;;17.25;9.23;;;8.00;92.20;;;;;;5097061;28;20492;-69
2021/01/04 02:48:23;;;;;;;13.27;5.80;;;8.00;92.20;;;;;;5096956;28;20028;-69
2021/01/04 02:51:13;;;;;;;16.63;7.72;;;8.10;92.30;;;;;;5096949;28;20031;-68
2021/01/04 02:53:57;;;;;;;13.05;5.90;;;8.00;92.40;;;;;;5097201;28;20069;-69
2021/01/04 02:57:02;;;;;;;10.68;5.43;;;8.00;92.40;;;;;;5097241;28;20136;-69
2021/01/04 02:59:58;;;;;;;10.65;5.72;;;8.00;92.40;;;;;;5096946;28;20452;-67
2021/01/04 03:02:45;;;;;;;17.40;8.35;;;8.00;92.40;;;;;;5079740;28;20117;-69
2021/01/04 03:05:16;;;;;;;17.42;8.65;;;8.00;92.40;;;;;;5097082;28;20028;-68
2021/01/04 03:07:49;;;;;;;14.27;7.78;;;8.00;92.50;;;;;;5096667;28;20024;-69
2021/01/04 03:10:33;;;;;;;17.75;8.95;;;8.00;92.50;;;;;;5095898;28;20020;-67
2021/01/04 03:13:13;;;;;;;14.30;6.45;;;8.00;92.50;;;;;;5097016;28;20017;-69
2021/01/04 03:16:01;;;;;;;9.27;5.35;;;8.00;92.60;;;;;;5095270;28;20360;-69
2021/01/04 03:19:09;;;;;;;10.57;5.78;;;7.90;92.80;;;;;;5097044;28;20073;-68
2021/01/04 03:21:36;;;;;;;9.20;5.53;;;7.90;92.50;;;;;;5096711;28;20131;-68
2021/01/04 03:24:04;;;;;;;14.27;7.05;;;7.90;92.40;;;;;;5095082;28;20118;-68
2021/01/04 03:26:51;;;;;;;10.70;5.93;;;7.90;92.50;;;;;;5096012;28;20077;-67
2021/01/04 03:29:17;;;;;;;9.45;5.75;;;7.90;92.40;;;;;;5096636;28;20052;-67
2021/01/04 03:31:43;;;;;;;12.43;6.65;;;7.90;92.40;;;;;;5096758;28;20109;-69
2021/01/04 03:34:09;;;;;;;11.38;6.38;;;7.90;92.40;;;;;;5096931;28;20059;-68
2021/01/04 03:36:35;;;;;;;12.75;6.60;;;7.90;92.40;;;;;;5095823;28;20028;-67
2021/01/04 03:39:00;;;;;;;10.02;6.65;;;7.90;92.30;;;;;;5096327;28;20028;-66
2021/01/04 03:41:29;;;;;;;14.18;7.00;;;7.90;92.50;;;;;;5095040;28;20094;-70
2021/01/04 03:43:55;;;;;;;14.68;7.88;;;7.80;92.60;;;;;;5095969;28;20416;-69
2021/01/04 03:46:21;;;;;;;16.58;7.53;;;7.80;92.80;;;;;;5096231;28;20042;-71
2021/01/04 03:48:47;;;;;;;25.45;12.13;;;7.70;92.70;;;;;;5096133;28;20477;-70
2021/01/04 03:51:13;;;;;;;28.55;15.10;;;7.70;92.90;;;;;;5095550;28;20085;-67
2021/01/04 03:53:41;;;;;;;29.70;17.05;;;7.70;92.70;;;;;;5096023;28;20027;-69
2021/01/04 03:56:07;;;;;;;29.10;17.63;;;7.80;92.70;;;;;;5096294;28;20028;-69
2021/01/04 03:58:33;;;;;;;35.05;20.23;;;7.80;92.80;;;;;;5095668;28;20497;-68
2021/01/04 04:00:59;;;;;;;40.53;23.95;;;7.80;92.80;;;;;;5095939;28;20023;-71
2021/01/04 04:03:24;;;;;;;35.22;22.52;;;7.80;92.70;;;;;;5096154;28;20525;-69
2021/01/04 04:05:50;;;;;;;29.23;18.42;;;7.80;92.90;;;;;;5094474;28;20031;-67
2021/01/04 04:08:16;;;;;;;16.60;9.20;;;7.80;92.70;;;;;;5095404;28;20119;-69
2021/01/04 04:10:41;;;;;;;13.38;6.80;;;7.70;92.80;;;;;;5095449;28;20035;-69
2021/01/04 04:13:07;;;;;;;11.13;6.72;;;7.70;92.90;;;;;;5093900;28;20024;-67
2021/01/04 04:15:33;;;;;;;11.15;6.97;;;7.70;93.00;;;;;;5095708;28;20027;-68
2021/01/04 04:17:59;;;;;;;13.93;7.75;;;7.70;93.10;;;;;;5094470;28;20525;-69
2021/01/04 04:20:25;;;;;;;17.25;8.32;;;7.70;93.20;;;;;;5094179;28;20484;-71
2021/01/04 04:22:54;;;;;;;13.85;8.57;;;7.70;93.30;;;;;;5095476;28;20427;-69
2021/01/04 04:25:22;;;;;;;16.77;10.27;;;7.60;93.50;;;;;;5094898;28;20462;-67
2021/01/04 04:27:49;;;;;;;16.75;10.30;;;7.50;93.60;;;;;;5095066;28;20106;-69
2021/01/04 04:30:21;;;;;;;20.60;9.35;;;7.50;93.50;;;;;;5094047;28;20433;-68
2021/01/04 04:32:48;;;;;;;18.60;11.27;;;7.60;93.40;;;;;;5093753;28;20031;-70
2021/01/04 04:35:14;;;;;;;19.73;12.50;;;7.60;93.50;;;;;;5095691;28;20381;-69
2021/01/04 04:37:42;;;;;;;32.15;21.40;;;7.60;93.50;;;;;;5093540;28;20031;-69
2021/01/04 04:40:13;;;;;;;41.88;25.75;;;7.60;93.60;;;;;;5094734;28;20027;-68
2021/01/04 04:42:39;;;;;;;20.23;11.65;;;7.50;93.60;;;;;;5095121;28;20031;-68
2021/01/04 04:45:12;;;;;;;37.30;20.73;;;7.50;93.50;;;;;;5093702;28;20036;-68
2021/01/04 04:47:38;;;;;;;41.10;20.83;;;7.50;93.50;;;;;;5093422;28;20028;-68
2021/01/04 04:50:07;;;;;;;46.28;24.05;;;;;;;;;;5093575;28;20040;-68
2021/01/04 04:53:02;;;;;;;58.10;28.48;;;7.40;93.60;;;;;;5093614;28;20055;-68
2021/01/04 04:55:55;;;;;;;65.57;30.70;;;7.40;93.90;;;;;;5094215;28;20453;-68
2021/01/04 04:58:33;;;;;;;50.45;24.75;;;7.40;94.00;;;;;;5094597;28;20024;-69
2021/01/04 05:01:35;;;;;;;48.28;24.70;;;7.30;94.10;;;;;;5093269;28;20466;-69
2021/01/04 05:04:37;;;;;;;51.50;26.33;;;7.30;94.00;;;;;;5093817;28;20488;-68
2021/01/04 05:07:14;;;;;;;25.77;14.30;;;7.30;94.00;;;;;;5093057;28;20023;-69
2021/01/04 05:09:46;;;;;;;80.65;39.95;;;7.30;94.00;;;;;;5092981;28;20085;-69
2021/01/04 05:12:18;;;;;;;68.07;35.22;;;7.20;94.20;;;;;;5093847;28;20066;-70
2021/01/04 05:15:17;;;;;;;32.75;19.60;;;7.20;94.30;;;;;;5093975;28;20428;-68
2021/01/04 05:17:55;;;;;;;47.47;25.90;;;7.20;94.30;;;;;;5094483;28;20031;-69
2021/01/04 05:20:43;;;;;;;40.22;22.00;;;7.20;94.30;;;;;;5094510;28;20423;-68
2021/01/04 05:23:11;;;;;;;35.67;19.33;;;7.10;94.40;;;;;;5094410;28;20103;-69
2021/01/04 05:26:12;;;;;;;32.17;17.52;;;7.10;94.40;;;;;;5094320;28;20025;-68
2021/01/04 05:29:19;;;;;;;42.97;23.15;;;7.10;94.50;;;;;;5011665;28;20038;-69
2021/01/04 05:32:15;;;;;;;39.35;21.83;;;7.10;94.50;;;;;;5072905;28;20123;-68
2021/01/04 05:34:49;;;;;;;35.83;19.05;;;7.10;94.40;;;;;;5094227;28;20024;-69
2021/01/04 05:37:29;;;;;;;34.53;17.35;;;7.10;94.50;;;;;;5093968;28;20140;-67
2021/01/04 05:40:23;;;;;;;167.75;149.80;;;7.10;94.50;;;;;;5093290;28;20438;-68
2021/01/04 05:43:13;;;;;;;45.85;41.03;;;7.10;94.50;;;;;;5093850;28;20102;-69
2021/01/04 05:45:45;;;;;;;41.83;30.45;;;7.10;94.50;;;;;;5094673;28;20526;-71
2021/01/04 05:48:20;;;;;;;53.50;35.88;;;7.10;94.60;;;;;;5092650;28;20044;-68
2021/01/04 05:51:11;;;;;;;40.85;26.58;;;7.10;94.60;;;;;;5092125;28;20023;-68
2021/01/04 05:53:37;;;;;;;35.88;23.85;;;7.10;94.60;;;;;;5094011;28;20157;-70
2021/01/04 05:56:03;;;;;;;25.15;15.63;;;7.00;94.70;;;;;;5093401;28;20103;-67
2021/01/04 05:58:31;;;;;;;35.70;18.95;;;7.00;95.00;;;;;;5092559;28;20032;-70
2021/01/04 06:01:16;;;;;;;28.88;16.08;;;7.00;94.80;;;;;;5092564;28;20024;-68
2021/01/04 06:03:42;;;;;;;29.83;19.88;;;7.00;94.80;;;;;;5093823;28;20023;-68
2021/01/04 06:06:13;;;;;;;31.70;19.52;;;7.00;94.70;;;;;;5092636;28;20123;-68
2021/01/04 06:08:39;;;;;;;26.63;16.95;;;7.10;94.70;;;;;;5093716;28;20480;-69
2021/01/04 06:11:10;;;;;;;29.17;18.45;;;7.10;94.50;;;;;;5092128;28;20024;-68
2021/01/04 06:13:42;;;;;;;29.75;18.60;;;7.20;94.30;;;;;;5092324;28;20052;-67
2021/01/04 06:16:11;;;;;;;28.17;17.88;;;7.20;94.10;;;;;;5093396;28;20431;-68
2021/01/04 06:18:44;;;;;;;30.17;18.75;;;7.20;93.90;;;;;;5093187;28;20040;-69
2021/01/04 06:21:41;;;;;;;34.25;22.77;;;7.20;94.00;;;;;;5093776;28;20408;-69
2021/01/04 06:24:09;;;;;;;42.97;27.30;;;7.30;94.00;;;;;;5093306;28;20405;-68
2021/01/04 06:26:35;;;;;;;37.80;24.77;;;7.30;93.90;;;;;;5092260;28;20035;-69
2021/01/04 06:29:07;;;;;;;38.47;22.42;;;7.20;94.20;;;;;;5092472;28;20036;-69
2021/01/04 06:31:42;;;;;;;38.33;22.15;;;7.20;94.30;;;;;;5092169;28;20024;-70
2021/01/04 06:34:19;;;;;;;34.80;20.90;;;7.20;94.30;;;;;;5093376;28;20020;-70
2021/01/04 06:36:49;;;;;;;40.42;24.42;;;7.20;94.10;;;;;;5091805;28;20024;-69
2021/01/04 06:39:24;;;;;;;54.35;36.28;;;7.10;94.10;;;;;;5091972;28;20062;-68
2021/01/04 06:41:52;;;;;;;43.10;27.13;;;7.20;94.10;;;;;;5092693;28;20081;-72
2021/01/04 06:44:17;;;;;;;36.47;21.83;;;7.20;94.10;;;;;;5093205;28;20103;-69
2021/01/04 06:47:14;;;;;;;29.08;17.48;;;7.20;94.00;;;;;;5093203;28;20102;-71
2021/01/04 06:50:06;;;;;;;31.83;19.60;;;7.20;94.00;;;;;;5092120;28;20363;-68
2021/01/04 06:53:07;;;;;;;37.83;22.77;;;7.20;94.00;;;;;;5092890;28;20503;-70
2021/01/04 06:56:01;;;;;;;37.10;23.98;;;7.20;93.90;;;;;;5092119;28;20111;-72
2021/01/04 06:59:05;;;;;;;31.70;18.85;;;7.20;94.20;;;;;;5093387;28;20027;-69
2021/01/04 07:01:37;;;;;;;28.17;18.92;;;7.20;94.10;;;;;;5011594;28;20089;-68
2021/01/04 07:04:40;;;;;;;31.38;20.88;;;7.30;94.10;;;;;;5014731;28;20033;-68
2021/01/04 07:07:30;;;;;;;106.30;61.40;;;7.30;94.10;;;;;;5070747;28;20099;-69
2021/01/04 07:10:48;;;;;;;88.13;48.03;;;7.40;94.10;;;;;;5097031;28;20089;-70
2021/01/04 07:13:35;;;;;;;55.17;32.22;;;7.40;94.00;;;;;;5054036;28;20083;-71
2021/01/04 07:16:16;;;;;;;55.35;29.20;;;7.30;94.10;;;;;;5095578;28;20024;-69
2021/01/04 07:18:47;;;;;;;58.05;26.05;;;7.30;94.30;;;;;;5096762;28;20070;-70
2021/01/04 07:21:51;;;;;;;48.53;27.35;;;7.30;94.50;;;;;;5096478;28;20051;-68
2021/01/04 07:24:36;;;;;;;64.75;39.67;;;7.30;94.50;;;;;;5094004;28;20031;-69
2021/01/04 07:27:18;;;;;;;101.93;64.13;;;7.40;94.20;;;;;;5095996;28;20504;-69
2021/01/04 07:30:10;;;;;;;138.20;86.75;;;7.40;94.10;;;;;;5096510;28;20373;-71
2021/01/04 07:32:37;;;;;;;272.60;153.02;;;7.50;94.40;;;;;;5096937;28;20057;-70
2021/01/04 07:35:11;;;;;;;141.63;85.88;;;7.50;94.40;;;;;;5094967;28;20024;-73
2021/01/04 07:38:15;;;;;;;78.50;47.30;;;7.50;94.50;;;;;;5093713;28;20039;-73
2021/01/04 07:40:52;;;;;;;90.80;56.65;;;7.50;94.20;;;;;;5032184;28;20387;-71
2021/01/04 07:43:50;;;;;;;67.60;43.25;;;7.60;94.30;;;;;;5031537;28;20376;-71
2021/01/04 07:46:53;;;;;;;49.20;31.40;;;7.60;94.40;;;;;;5080076;28;20092;-70
2021/01/04 07:49:37;;;;;;;41.60;25.85;;;7.70;94.20;;;;;;5095507;28;20123;-69
2021/01/04 07:52:35;;;;;;;38.30;25.10;;;7.80;94.20;;;;;;5095660;28;20482;-68
2021/01/04 07:55:18;;;;;;;34.38;23.63;;;7.80;94.20;;;;;;5095654;28;20039;-69
2021/01/04 07:58:05;;;;;;;35.03;24.50;;;7.80;94.40;;;;;;5094834;28;20390;-68
2021/01/04 08:00:43;;;;;;;46.63;29.98;;;7.90;94.30;;;;;;5096634;28;20033;-69
2021/01/04 08:03:27;;;;;;;52.47;33.15;;;8.00;94.40;;;;;;5095665;28;20023;-68
2021/01/04 08:05:59;;;;;;;70.97;39.10;;;8.00;94.10;;;;;;5094683;28;20027;-69
2021/01/04 08:08:48;;;;;;;70.40;39.60;;;8.10;94.00;;;;;;5095385;28;20474;-69
2021/01/04 08:11:41;;;;;;;70.53;41.28;;;8.10;93.90;;;;;;5093113;28;20073;-68
2021/01/04 08:14:38;;;;;;;79.10;44.95;;;8.20;93.90;;;;;;5094061;28;20397;-69
2021/01/04 08:17:17;;;;;;;83.50;47.35;;;8.30;94.00;;;;;;5094122;28;20024;-72
2021/01/04 08:19:45;;;;;;;89.65;49.70;;;8.30;93.90;;;;;;5094390;28;20028;-71
2021/01/04 08:22:37;;;;;;;81.25;41.45;;;8.40;93.90;;;;;;5094300;28;20430;-70
2021/01/04 08:25:24;;;;;;;91.63;46.92;;;8.40;93.80;;;;;;5095528;28;20069;-70
2021/01/04 08:28:07;;;;;;;72.80;42.75;;;8.40;94.10;;;;;;5094112;28;20070;-72
2021/01/04 08:30:43;;;;;;;133.98;58.70;;;8.40;93.90;;;;;;5095056;28;20047;-69
2021/01/04 08:33:19;;;;;;;90.72;45.83;;;8.40;94.00;;;;;;5095144;28;20096;-70
2021/01/04 08:35:47;;;;;;;117.18;55.47;;;8.40;93.60;;;;;;5094026;28;20031;-69
2021/01/04 08:38:27;;;;;;;111.70;57.22;;;8.40;93.80;;;;;;5094759;28;20132;-71
2021/01/04 08:40:55;;;;;;;68.47;35.70;;;8.50;93.70;;;;;;5093950;28;20028;-70
2021/01/04 08:43:42;;;;;;;85.57;39.83;;;8.50;93.70;;;;;;5093861;28;20377;-69
2021/01/04 08:46:17;;;;;;;94.95;44.67;;;8.60;93.60;;;;;;5095148;28;20030;-69
2021/01/04 08:48:43;;;;;;;41.17;24.38;;;8.60;93.30;;;;;;5094998;28;20028;-69
2021/01/04 08:51:14;;;;;;;50.75;26.27;;;8.70;93.40;;;;;;5093690;28;20069;-71
2021/01/04 08:54:03;;;;;;;30.73;19.80;;;8.70;93.50;;;;;;5095603;28;20058;-69
2021/01/04 08:56:36;;;;;;;35.20;23.33;;;8.70;93.20;;;;;;5094938;28;20468;-70
2021/01/04 08:59:23;;;;;;;32.15;20.13;;;8.70;93.20;;;;;;5095221;28;20027;-72
2021/01/04 09:01:56;;;;;;;40.80;25.13;;;8.70;93.20;;;;;;5094456;28;20032;-70
2021/01/04 09:04:35;;;;;;;37.90;23.38;;;8.80;92.80;;;;;;5093115;28;20031;-68
2021/01/04 09:07:09;;;;;;;39.38;23.08;;;8.80;93.20;;;;;;5094539;28;20031;-70
2021/01/04 09:09:43;;;;;;;36.60;22.30;;;8.80;93.00;;;;;;5094283;28;20043;-74
2021/01/04 09:12:15;;;;;;;28.08;18.20;;;8.90;93.10;;;;;;5094741;28;20032;-70
2021/01/04 09:15:25;;;;;;;34.30;21.05;;;8.90;93.20;;;;;;5093162;28;20044;-71
2021/01/04 09:17:59;;;;;;;35.80;21.13;;;9.00;93.10;;;;;;5094302;28;20016;-69
2021/01/04 09:20:47;;;;;;;43.65;24.17;;;9.00;93.00;;;;;;5094077;28;20040;-69
2021/01/04 09:23:19;;;;;;;43.60;25.23;;;9.10;92.80;;;;;;5092948;28;20035;-69
2021/01/04 09:26:01;;;;;;;51.90;25.70;;;9.10;92.80;;;;;;5092573;28;20020;-72
2021/01/04 09:28:34;;;;;;;165.88;72.95;;;9.10;93.00;;;;;;5094286;28;20038;-69
2021/01/04 09:31:00;;;;;;;87.30;50.35;;;9.20;92.90;;;;;;5092862;28;20051;-72
2021/01/04 09:33:26;;;;;;;101.03;61.22;;;9.30;92.70;;;;;;5093048;28;20370;-70
2021/01/04 09:36:01;;;;;;;82.70;50.60;;;9.30;92.50;;;;;;5094216;28;20036;-72
2021/01/04 09:38:27;;;;;;;39.17;23.15;;;9.30;92.70;;;;;;5092636;28;20023;-73
2021/01/04 09:41:05;;;;;;;39.70;25.48;;;9.20;92.70;;;;;;5127062;27;20115;-70
2021/01/04 09:43:35;;;;;;;28.10;19.60;;;9.30;92.40;;;;;;5092595;28;20060;-68
2021/01/04 09:46:32;;;;;;;66.18;44.33;;;9.20;92.60;;;;;;5093797;28;20500;-70
2021/01/04 09:49:04;;;;;;;85.05;49.53;;;9.20;92.60;;;;;;5072533;28;20047;-72
2021/01/04 09:51:48;;;;;;;84.25;44.28;;;9.20;92.60;;;;;;5093474;28;20386;-70
2021/01/04 09:54:25;;;;;;;33.20;24.45;;;9.20;92.90;;;;;;5093319;28;20024;-70
2021/01/04 09:56:58;;;;;;;30.40;23.55;;;9.20;92.70;;;;;;5093718;28;20028;-69
2021/01/04 09:59:25;;;;;;;51.90;35.65;;;9.10;92.50;;;;;;5092371;28;20039;-71
2021/01/04 10:01:55;;;;;;;37.15;23.52;;;9.10;92.80;;;;;;5092553;28;20024;-71
2021/01/04 10:04:42;;;;;;;53.83;33.03;;;9.20;93.10;;;;;;5093620;28;20016;-71
2021/01/04 10:07:11;;;;;;;61.20;33.53;;;9.20;93.70;;;;;;5094032;28;20027;-71
2021/01/04 10:09:43;;;;;;;42.53;29.65;;;9.20;93.50;;;;;;5092425;28;20028;-69
2021/01/04 10:12:17;;;;;;;54.83;32.15;;;9.20;93.10;;;;;;5093180;28;20462;-72
2021/01/04 10:14:45;;;;;;;56.65;34.75;;;9.20;93.20;;;;;;5092289;28;20072;-68
2021/01/04 10:17:11;;;;;;;141.88;86.97;;;9.20;93.30;;;;;;5092403;28;20031;-71
2021/01/04 10:19:51;;;;;;;129.20;78.10;;;9.20;93.10;;;;;;5091752;28;20024;-70
2021/01/04 10:22:26;;;;;;;144.82;81.60;;;9.10;93.50;;;;;;5090671;28;20473;-68
2021/01/04 10:25:30;;;;;;;87.45;49.75;;;9.10;93.50;;;;;;5093540;28;20024;-71
2021/01/04 10:27:58;;;;;;;82.70;51.17;;;9.10;93.50;;;;;;5091891;28;20111;-67
2021/01/04 10:30:26;;;;;;;79.15;52.28;;;9.20;93.60;;;;;;5093873;28;20032;-68
2021/01/04 10:33:30;;;;;;;72.60;47.90;;;9.20;93.60;;;;;;5091785;28;20028;-70
2021/01/04 10:36:04;;;;;;;55.53;40.17;;;9.20;93.30;;;;;;5061671;28;20451;-69
2021/01/04 10:38:32;;;;;;;54.33;37.60;;;9.20;93.50;;;;;;5097707;28;20035;-69
2021/01/04 10:40:58;;;;;;;46.60;33.58;;;9.20;93.40;;;;;;5095953;28;20032;-67
2021/01/04 10:43:26;;;;;;;48.92;32.88;;;9.20;93.90;;;;;;5097225;28;20028;-71
2021/01/04 10:45:52;;;;;;;49.40;32.75;;;9.30;93.60;;;;;;5097688;28;20082;-68
2021/01/04 10:48:19;;;;;;;79.25;40.53;;;9.30;93.40;;;;;;5095715;28;20028;-69
2021/01/04 10:50:54;;;;;;;143.98;58.35;;;9.40;93.10;;;;;;5095339;28;20038;-70
2021/01/04 10:53:31;;;;;;;130.32;55.63;;;9.40;93.30;;;;;;5096996;28;20069;-71
2021/01/04 10:56:09;;;;;;;103.25;53.72;;;9.50;93.20;;;;;;5096467;28;20116;-69
2021/01/04 10:58:48;;;;;;;72.00;37.22;;;9.60;93.60;;;;;;5097158;28;20032;-69
2021/01/04 11:01:22;;;;;;;42.38;26.10;;;9.60;93.20;;;;;;5096625;28;20025;-70
2021/01/04 11:03:56;;;;;;;61.05;28.02;;;9.60;93.50;;;;;;5097196;28;20024;-70
2021/01/04 11:06:34;;;;;;;35.72;23.88;;;9.60;92.90;;;;;;5095732;28;20056;-68
2021/01/04 11:09:27;;;;;;;44.35;26.38;;;9.70;93.60;;;;;;5096420;28;20085;-72
2021/01/04 11:12:32;;;;;;;54.90;31.25;;;9.70;93.00;;;;;;5096696;28;20488;-70
2021/01/04 11:15:04;;;;;;;100.35;53.10;;;9.70;93.30;;;;;;5092848;28;20104;-70
2021/01/04 11:17:34;;;;;;;44.53;25.42;;;9.70;93.50;;;;;;5096817;28;20032;-70
2021/01/04 11:20:08;;;;;;;23.85;13.57;;;9.70;92.60;;;;;;5095191;28;20035;-69
2021/01/04 11:22:34;;;;;;;27.67;19.75;;;9.80;91.90;;;;;;5096839;28;20028;-69
2021/01/04 11:25:00;;;;;;;24.88;15.63;;;9.80;91.90;;;;;;5096061;28;20035;-66
2021/01/04 11:27:26;;;;;;;26.45;18.48;;;9.80;91.80;;;;;;5094776;28;20044;-68
2021/01/04 11:29:52;;;;;;;19.38;13.80;;;9.80;92.00;;;;;;5095485;28;20475;-70
2021/01/04 11:32:19;;;;;;;22.83;15.98;;;9.90;92.20;;;;;;5096012;28;20051;-68
2021/01/04 11:34:51;;;;;;;23.55;18.25;;;9.90;92.00;;;;;;5094615;28;20473;-70
2021/01/04 11:37:19;;;;;;;20.17;14.00;;;9.90;91.50;;;;;;5094395;28;20454;-69
2021/01/04 11:39:44;;;;;;;21.40;13.43;;;10.00;91.70;;;;;;5096044;28;20032;-69
2021/01/04 11:42:11;;;;;;;25.98;19.70;;;10.00;91.70;;;;;;5094597;28;20028;-71
2021/01/04 11:44:37;;;;;;;37.40;31.52;;;10.00;91.60;;;;;;5095047;28;20359;-70
2021/01/04 11:47:04;;;;;;;49.55;28.55;;;10.00;91.60;;;;;;5095648;28;20458;-69
2021/01/04 11:49:30;;;;;;;44.10;26.30;;;10.00;92.00;;;;;;5095695;28;20031;-67
2021/01/04 11:51:56;;;;;;;36.05;24.05;;;10.10;92.10;;;;;;5094797;28;20028;-67
2021/01/04 11:54:22;;;;;;;94.57;52.53;;;10.10;91.80;;;;;;5095762;28;20481;-68
2021/01/04 11:56:50;;;;;;;77.10;45.85;;;10.10;91.50;;;;;;5094435;28;20024;-68
2021/01/04 11:59:16;;;;;;;73.55;40.67;;;10.20;91.50;;;;;;5094698;28;20123;-68
2021/01/04 12:01:42;;;;;;;29.58;19.10;;;10.20;91.80;;;;;;5095721;28;20048;-66
2021/01/04 12:04:09;;;;;;;25.27;18.13;;;10.30;92.80;;;;;;5095668;28;20046;-68
2021/01/04 12:06:36;;;;;;;22.92;16.10;;;10.30;93.10;;;;;;5094583;28;20055;-67
2021/01/04 12:09:06;;;;;;;28.52;18.83;;;10.30;93.30;;;;;;5095751;28;20028;-70
2021/01/04 12:11:41;;;;;;;26.52;17.60;;;10.40;92.80;;;;;;5095584;28;20046;-69
2021/01/04 12:14:08;;;;;;;25.25;17.08;;;10.40;92.70;;;;;;5095801;28;20367;-69
2021/01/04 12:16:34;;;;;;;40.80;24.75;;;10.40;92.70;;;;;;5095662;28;20068;-69
2021/01/04 12:19:01;;;;;;;79.25;44.05;;;10.40;92.60;;;;;;5095401;28;20034;-67
2021/01/04 12:21:27;;;;;;;56.45;36.42;;;10.40;92.90;;;;;;5095639;28;20024;-68
2021/01/04 12:23:53;;;;;;;46.75;33.05;;;10.40;92.50;;;;;;5095098;28;20043;-66
2021/01/04 12:26:20;;;;;;;41.63;30.00;;;10.30;92.40;;;;;;5093894;28;20107;-68
2021/01/04 12:28:46;;;;;;;29.02;21.58;;;10.30;92.30;;;;;;5095913;28;20124;-67
2021/01/04 12:31:16;;;;;;;32.55;24.77;;;10.20;93.10;;;;;;5093800;28;20056;-67
2021/01/04 12:33:42;;;;;;;34.95;23.67;;;10.20;92.70;;;;;;5094087;28;20066;-67
2021/01/04 12:36:22;;;;;;;31.10;21.08;;;10.20;93.30;;;;;;5095020;28;20016;-66
2021/01/04 12:38:49;;;;;;;33.83;23.08;;;10.10;92.60;;;;;;5095442;28;20024;-68
2021/01/04 12:41:16;;;;;;;30.25;20.85;;;10.10;93.50;;;;;;5093983;28;20202;-66
2021/01/04 12:43:43;;;;;;;29.23;21.02;;;10.10;93.10;;;;;;5095147;28;20046;-65
2021/01/04 12:46:09;;;;;;;29.25;19.63;;;10.10;93.20;;;;;;5094823;28;20020;-67
2021/01/04 12:48:35;;;;;;;33.65;21.30;;;10.00;93.20;;;;;;5095079;28;20480;-68
2021/01/04 12:51:01;;;;;;;33.95;22.92;;;10.00;93.40;;;;;;5094690;28;20106;-66
2021/01/04 12:53:26;;;;;;;43.05;29.58;;;10.00;93.90;;;;;;5094518;28;20058;-67
2021/01/04 12:55:52;;;;;;;47.42;32.03;;;10.00;93.60;;;;;;5094836;28;20028;-71
2021/01/04 12:58:19;;;;;;;40.08;29.10;;;10.10;93.20;;;;;;5093520;28;20024;-65
2021/01/04 13:00:45;;;;;;;56.95;34.92;;;10.00;93.20;;;;;;5092099;28;20040;-68
2021/01/04 13:03:12;;;;;;;81.22;48.03;;;10.10;93.30;;;;;;5093494;28;20024;-67
2021/01/04 13:05:38;;;;;;;57.15;36.50;;;10.10;93.00;;;;;;5093549;28;20020;-66
2021/01/04 13:08:04;;;;;;;66.18;40.42;;;10.10;92.90;;;;;;5094402;28;20359;-67
2021/01/04 13:10:30;;;;;;;69.75;42.90;;;10.10;93.00;;;;;;5094670;28;20028;-69
2021/01/04 13:12:55;;;;;;;65.43;38.95;;;10.10;93.10;;;;;;5093122;28;20104;-67
2021/01/04 13:15:21;;;;;;;39.90;26.38;;;10.00;93.20;;;;;;5092995;28;20070;-67
2021/01/04 13:17:47;;;;;;;38.92;27.10;;;10.00;93.10;;;;;;5093204;28;20024;-69
2021/01/04 13:20:13;;;;;;;48.70;32.40;;;10.00;93.30;;;;;;5092983;28;20024;-68
2021/01/04 13:22:41;;;;;;;47.47;32.03;;;10.00;93.40;;;;;;5094425;28;20530;-68
2021/01/04 13:25:11;;;;;;;48.60;30.45;;;9.90;93.10;;;;;;5093079;28;20114;-67
2021/01/04 13:27:37;;;;;;;45.50;26.67;;;9.90;93.50;;;;;;5093666;28;20023;-69